Webcam Flughafen St.Gallen-Altenrhein

Live-Bilder und Zeitraffer LSZR / ACH.

 

Live aus Altenrhein
LIVE
LSZR 161920Z AUTO 10005KT 9999 NSC 10/10 Q1005
Zeitraffer heute
2021-05-16 00:14:41
LSZR 152150Z AUTO 20011KT 170V230 9999 -RA BKN041 09/07 Q1009